createdAt,value
2022-08-17T00:01:33.345Z,57.44
2022-08-17T00:04:19.457Z,58.14
2022-08-17T00:06:49.681Z,57.86
2022-08-17T00:09:18.820Z,58.79
2022-08-17T00:12:41.176Z,58.64
2022-08-17T00:14:34.965Z,58.22
2022-08-17T00:17:03.771Z,58.45
2022-08-17T00:19:32.448Z,59.02
2022-08-17T00:22:33.173Z,59.23
2022-08-17T00:24:47.266Z,60.24
2022-08-17T00:27:13.814Z,59.42
2022-08-17T00:29:40.495Z,60.21
2022-08-17T00:33:23.255Z,60.06
2022-08-17T00:34:53.903Z,60.50
2022-08-17T00:37:20.419Z,60.40
2022-08-17T00:39:46.941Z,60.84
2022-08-17T00:42:18.808Z,60.77
2022-08-17T00:44:45.722Z,60.61
2022-08-17T00:47:12.335Z,60.68
2022-08-17T00:49:38.862Z,60.85
2022-08-17T00:52:15.537Z,60.53
2022-08-17T00:54:44.848Z,60.44
2022-08-17T00:57:21.101Z,61.04
2022-08-17T01:00:02.943Z,61.96
2022-08-17T01:02:41.673Z,61.11
2022-08-17T01:05:21.320Z,60.56
2022-08-17T01:07:50.628Z,60.96
2022-08-17T01:10:59.306Z,61.53
2022-08-17T01:13:07.897Z,61.19
2022-08-17T01:15:37.493Z,62.02
2022-08-17T01:18:09.605Z,61.59
2022-08-17T01:20:47.915Z,61.52
2022-08-17T01:23:20.783Z,61.81
2022-08-17T01:25:54.189Z,61.88
2022-08-17T01:28:33.336Z,61.68
2022-08-17T01:31:08.999Z,61.89
2022-08-17T01:33:36.204Z,61.89
2022-08-17T01:36:03.612Z,62.21
2022-08-17T01:38:31.848Z,62.05
2022-08-17T01:41:06.559Z,62.45
2022-08-17T01:43:41.466Z,62.33
2022-08-17T01:46:08.066Z,62.80
2022-08-17T01:48:36.915Z,62.52
2022-08-17T01:51:05.946Z,62.40
2022-08-17T01:53:37.867Z,62.71
2022-08-17T01:56:09.926Z,62.11
2022-08-17T01:58:37.744Z,62.78
2022-08-17T02:01:06.437Z,63.52
2022-08-17T02:03:36.182Z,63.08
2022-08-17T02:06:05.250Z,63.68
2022-08-17T02:08:38.835Z,63.35
2022-08-17T02:11:22.400Z,63.16
2022-08-17T02:13:57.805Z,63.83
2022-08-17T02:16:37.027Z,63.81
2022-08-17T02:19:07.989Z,64.81
2022-08-17T02:21:36.093Z,64.83
2022-08-17T02:24:03.623Z,65.32
2022-08-17T02:26:30.175Z,64.74
2022-08-17T02:28:56.810Z,64.60
2022-08-17T02:31:25.547Z,65.85
2022-08-17T02:33:56.570Z,65.16
2022-08-17T02:36:27.607Z,65.27
2022-08-17T02:38:54.220Z,65.99
2022-08-17T02:41:20.849Z,65.99
2022-08-17T02:43:47.314Z,65.34
2022-08-17T02:46:13.939Z,65.23
2022-08-17T02:48:40.546Z,65.82
2022-08-17T02:51:07.038Z,66.46
2022-08-17T02:53:35.742Z,66.31
2022-08-17T02:56:02.858Z,66.16
2022-08-17T02:58:35.350Z,66.25
2022-08-17T03:01:05.940Z,66.11
2022-08-17T03:03:33.072Z,66.84
2022-08-17T03:05:59.768Z,66.54
2022-08-17T03:08:27.208Z,66.47
2022-08-17T03:10:53.915Z,66.33
2022-08-17T03:13:20.772Z,66.58
2022-08-17T03:15:48.762Z,67.93
2022-08-17T03:18:24.889Z,67.35
2022-08-17T03:20:54.591Z,67.18
2022-08-17T03:23:24.307Z,67.35
2022-08-17T03:25:53.832Z,67.53
2022-08-17T03:28:21.555Z,67.34
2022-08-17T03:30:48.168Z,67.29
2022-08-17T03:33:14.830Z,67.08
2022-08-17T03:35:41.427Z,68.48
2022-08-17T03:38:12.060Z,67.23
2022-08-17T03:40:58.108Z,67.48
2022-08-17T03:43:28.415Z,68.14
2022-08-17T03:46:27.704Z,68.00
2022-08-17T03:49:18.949Z,68.30
2022-08-17T03:52:04.093Z,68.28
2022-08-17T03:54:48.824Z,68.01
2022-08-17T03:57:15.426Z,69.10
2022-08-17T03:59:42.331Z,68.22
2022-08-17T04:02:32.002Z,68.20
2022-08-17T04:04:59.480Z,68.60
2022-08-17T04:07:28.651Z,68.82
2022-08-17T04:09:59.300Z,69.15
2022-08-17T04:12:30.537Z,68.40
2022-08-17T04:14:57.546Z,68.44
2022-08-17T04:17:27.571Z,69.48
2022-08-17T04:19:55.213Z,68.47
2022-08-17T04:22:31.159Z,69.11
2022-08-17T04:25:21.584Z,68.59
2022-08-17T04:27:48.731Z,68.95
2022-08-17T04:30:15.835Z,69.04
2022-08-17T04:33:10.700Z,69.00
2022-08-17T04:35:49.192Z,71.01
2022-08-17T04:38:25.824Z,71.13
2022-08-17T04:41:11.909Z,70.12
2022-08-17T04:43:40.237Z,69.68
2022-08-17T04:46:12.907Z,69.69
2022-08-17T04:48:42.691Z,71.83
2022-08-17T04:51:18.988Z,69.74
2022-08-17T04:53:54.258Z,69.17
2022-08-17T04:56:22.616Z,68.90
2022-08-17T04:58:54.490Z,68.37
2022-08-17T05:01:24.017Z,68.22
2022-08-17T05:03:52.775Z,68.47
2022-08-17T05:06:19.306Z,67.77
2022-08-17T05:08:45.913Z,67.84
2022-08-17T05:11:14.321Z,67.72
2022-08-17T05:13:40.878Z,68.13
2022-08-17T05:16:09.016Z,67.41
2022-08-17T05:18:37.145Z,67.48
2022-08-17T05:21:03.813Z,67.91
2022-08-17T05:23:41.698Z,67.78
2022-08-17T05:26:26.370Z,67.52
2022-08-17T05:28:55.444Z,67.63
2022-08-17T05:31:25.277Z,67.73
2022-08-17T05:33:52.373Z,67.82
2022-08-17T05:36:43.580Z,67.74
2022-08-17T05:39:05.708Z,67.73
2022-08-17T05:41:32.317Z,68.63
2022-08-17T05:43:58.896Z,68.30
2022-08-17T05:46:28.733Z,67.75
2022-08-17T05:49:03.364Z,67.39
2022-08-17T05:51:51.163Z,67.40
2022-08-17T05:54:47.961Z,67.60
2022-08-17T05:57:43.334Z,67.39
2022-08-17T06:00:31.249Z,68.26
2022-08-17T06:03:10.127Z,67.63
2022-08-17T06:06:14.914Z,68.13
2022-08-17T06:09:14.376Z,67.69
2022-08-17T06:12:03.492Z,67.22
2022-08-17T06:15:19.518Z,66.75
2022-08-17T06:17:46.632Z,66.01
2022-08-17T06:20:15.627Z,65.22
2022-08-17T06:22:49.558Z,65.23
2022-08-17T06:25:31.225Z,65.10
2022-08-17T06:28:04.663Z,64.33
2022-08-17T06:30:59.633Z,64.04
2022-08-17T06:33:34.251Z,63.91
2022-08-17T06:36:33.569Z,63.96
2022-08-17T06:39:02.940Z,63.67
2022-08-17T06:42:02.936Z,63.55
2022-08-17T06:44:52.520Z,63.20
2022-08-17T06:47:52.496Z,62.40
2022-08-17T06:50:40.104Z,62.07
2022-08-17T06:53:21.243Z,61.38
2022-08-17T06:56:06.856Z,60.13
2022-08-17T06:58:35.677Z,61.42
2022-08-17T07:01:09.865Z,60.17
2022-08-17T07:04:13.848Z,58.43
2022-08-17T07:06:56.889Z,58.78
2022-08-17T07:09:33.104Z,57.84
2022-08-17T07:12:15.838Z,52.81
2022-08-17T07:15:05.465Z,54.14
2022-08-17T07:17:46.427Z,54.73
2022-08-17T07:20:22.607Z,53.89
2022-08-17T07:23:01.878Z,53.18
2022-08-17T07:25:30.408Z,52.85
2022-08-17T07:28:02.615Z,51.81
2022-08-17T07:30:46.870Z,48.31
2022-08-17T07:33:19.974Z,48.58
2022-08-17T07:35:48.349Z,48.46
2022-08-17T07:38:25.891Z,46.46
2022-08-17T07:41:02.844Z,46.88
2022-08-17T07:43:32.863Z,46.21
2022-08-17T07:46:29.777Z,45.38
2022-08-17T07:49:16.339Z,44.65
2022-08-17T07:51:42.918Z,44.37
2022-08-17T07:54:15.426Z,45.21
2022-08-17T07:56:49.254Z,44.37
2022-08-17T07:59:24.453Z,44.97
2022-08-17T08:01:57.521Z,43.30
2022-08-17T08:04:59.158Z,43.08
2022-08-17T08:07:39.367Z,43.24
2022-08-17T08:10:11.233Z,41.75
2022-08-17T08:12:48.959Z,41.34
2022-08-17T08:15:25.732Z,41.47
2022-08-17T08:18:03.176Z,41.47
2022-08-17T08:20:53.252Z,40.56
2022-08-17T08:23:34.177Z,39.72
2022-08-17T08:26:31.799Z,39.10
2022-08-17T08:29:22.455Z,38.34
2022-08-17T08:32:33.087Z,39.46
2022-08-17T08:35:08.494Z,39.37
2022-08-17T08:38:10.949Z,38.46
2022-08-17T08:40:49.475Z,36.85
2022-08-17T08:43:30.844Z,35.93
2022-08-17T08:46:15.521Z,35.63
2022-08-17T08:49:12.205Z,35.74
2022-08-17T08:51:55.923Z,36.10
2022-08-17T08:54:48.161Z,34.07
2022-08-17T08:57:25.549Z,34.92
2022-08-17T09:00:26.174Z,33.77
2022-08-17T09:03:28.068Z,33.53
2022-08-17T09:06:33.443Z,33.83
2022-08-17T09:09:33.681Z,34.85
2022-08-17T09:12:20.048Z,33.48
2022-08-17T09:15:03.161Z,32.46
2022-08-17T09:17:43.703Z,33.65
2022-08-17T09:20:30.172Z,32.27
2022-08-17T09:23:08.642Z,32.59
2022-08-17T09:26:01.010Z,31.43
2022-08-17T09:28:38.630Z,32.71
2022-08-17T09:31:19.078Z,31.58
2022-08-17T09:33:48.955Z,31.62
2022-08-17T09:36:23.015Z,31.06
2022-08-17T09:39:08.344Z,29.87
2022-08-17T09:41:49.207Z,29.65
2022-08-17T09:44:46.647Z,29.62
2022-08-17T09:47:32.482Z,29.33
2022-08-17T09:51:05.341Z,27.99
2022-08-17T09:53:13.634Z,28.95
2022-08-17T09:55:58.902Z,27.47
2022-08-17T09:58:43.949Z,27.91
2022-08-17T10:01:31.319Z,27.69
2022-08-17T10:04:29.646Z,27.62
2022-08-17T10:07:24.807Z,26.55
2022-08-17T10:10:15.256Z,26.82
2022-08-17T10:12:53.081Z,26.29
2022-08-17T10:15:37.927Z,25.89
2022-08-17T10:18:19.936Z,26.53
2022-08-17T10:21:19.899Z,24.72
2022-08-17T10:24:14.258Z,24.62
2022-08-17T10:26:55.503Z,24.30
2022-08-17T10:29:28.871Z,24.27
2022-08-17T10:32:04.077Z,24.42
2022-08-17T10:34:56.494Z,24.88
2022-08-17T10:37:35.335Z,23.74
2022-08-17T10:40:16.086Z,23.10
2022-08-17T10:42:59.065Z,23.51
2022-08-17T10:45:47.030Z,23.86
2022-08-17T10:48:13.944Z,23.38
2022-08-17T10:50:55.845Z,23.42
2022-08-17T10:53:31.479Z,22.50
2022-08-17T10:56:21.649Z,23.63
2022-08-17T10:58:59.829Z,22.90
2022-08-17T11:01:32.466Z,22.47
2022-08-17T11:04:08.612Z,22.80
2022-08-17T11:06:51.731Z,22.80
2022-08-17T11:09:30.648Z,23.58
2022-08-17T11:12:24.048Z,23.48
2022-08-17T11:15:11.310Z,23.09
2022-08-17T11:18:08.473Z,21.80
2022-08-17T11:20:44.814Z,20.85
2022-08-17T11:23:48.638Z,21.09
2022-08-17T11:26:25.901Z,19.56
2022-08-17T11:28:59.155Z,20.36
2022-08-17T11:31:44.436Z,20.86
2022-08-17T11:34:26.253Z,21.51
2022-08-17T11:37:00.302Z,21.95
2022-08-17T11:39:41.605Z,20.52
2022-08-17T11:42:25.380Z,21.25
2022-08-17T11:44:53.828Z,21.11
2022-08-17T11:47:49.529Z,20.94
2022-08-17T11:51:18.974Z,20.97
2022-08-17T11:53:45.717Z,21.31
2022-08-17T11:56:41.772Z,21.07
2022-08-17T11:59:32.881Z,21.03
2022-08-17T12:02:31.640Z,20.79
2022-08-17T12:05:12.305Z,21.88
2022-08-17T12:07:51.885Z,21.24
2022-08-17T12:10:25.589Z,20.79
2022-08-17T12:12:53.977Z,20.30
2022-08-17T12:15:28.660Z,19.91
2022-08-17T12:17:57.049Z,20.02
2022-08-17T12:20:29.001Z,20.17
2022-08-17T12:23:07.578Z,20.12
2022-08-17T12:25:37.845Z,19.92
2022-08-17T12:28:20.143Z,20.41
2022-08-17T12:30:51.986Z,20.01
2022-08-17T12:33:25.654Z,20.11
2022-08-17T12:36:03.104Z,20.45
2022-08-17T12:38:36.010Z,21.07
2022-08-17T12:41:24.605Z,21.51
2022-08-17T12:44:04.203Z,21.26
2022-08-17T12:46:35.886Z,20.80
2022-08-17T12:49:21.299Z,20.11
2022-08-17T12:51:48.058Z,20.15
2022-08-17T12:54:26.400Z,20.41
2022-08-17T12:56:53.481Z,19.95
2022-08-17T12:59:30.435Z,19.30
2022-08-17T13:02:00.748Z,18.99
2022-08-17T13:04:29.566Z,17.90
2022-08-17T13:06:59.824Z,18.46
2022-08-17T13:09:40.493Z,19.32
2022-08-17T13:12:08.016Z,19.90
2022-08-17T13:14:35.335Z,19.87
2022-08-17T13:17:13.329Z,20.61
2022-08-17T13:19:50.234Z,20.58
2022-08-17T13:22:22.480Z,21.24
2022-08-17T13:24:55.150Z,21.33
2022-08-17T13:27:26.325Z,21.64
2022-08-17T13:30:07.519Z,21.92
2022-08-17T13:32:48.705Z,22.04
2022-08-17T13:35:39.272Z,22.11
2022-08-17T13:38:18.675Z,22.16
2022-08-17T13:40:50.353Z,22.36
2022-08-17T13:43:48.646Z,22.79
2022-08-17T13:46:28.356Z,23.38
2022-08-17T13:49:09.837Z,22.96
2022-08-17T13:51:44.269Z,23.30
2022-08-17T13:54:35.107Z,23.48
2022-08-17T13:57:15.943Z,23.40
2022-08-17T13:59:54.277Z,24.29
2022-08-17T14:02:25.952Z,23.76
2022-08-17T14:04:55.754Z,23.48
2022-08-17T14:07:33.834Z,23.21
2022-08-17T14:10:03.405Z,22.81
2022-08-17T14:12:33.323Z,22.90
2022-08-17T14:15:00.666Z,22.90
2022-08-17T14:17:29.437Z,22.80
2022-08-17T14:19:56.105Z,22.32
2022-08-17T14:22:29.758Z,22.21
2022-08-17T14:25:00.997Z,22.08
2022-08-17T14:27:30.780Z,21.98
2022-08-17T14:29:58.046Z,21.75
2022-08-17T14:32:34.076Z,22.24
2022-08-17T14:35:05.664Z,21.53
2022-08-17T14:37:32.701Z,21.64
2022-08-17T14:40:02.210Z,21.22
2022-08-17T14:42:31.776Z,22.09
2022-08-17T14:44:59.425Z,22.26
2022-08-17T14:47:29.287Z,22.25
2022-08-17T14:49:56.010Z,22.55
2022-08-17T14:52:23.052Z,23.38
2022-08-17T14:54:51.504Z,24.06
2022-08-17T14:57:33.632Z,24.11
2022-08-17T15:00:02.825Z,26.41
2022-08-17T15:02:31.389Z,27.47
2022-08-17T15:05:05.261Z,27.75
2022-08-17T15:07:32.117Z,28.33
2022-08-17T15:10:02.654Z,27.80
2022-08-17T15:12:33.780Z,28.78
2022-08-17T15:15:06.375Z,29.08
2022-08-17T15:17:44.281Z,28.83
2022-08-17T15:20:18.827Z,28.10
2022-08-17T15:22:49.829Z,27.83
2022-08-17T15:25:19.268Z,28.69
2022-08-17T15:27:52.256Z,28.59
2022-08-17T15:30:27.447Z,28.98
2022-08-17T15:32:56.708Z,29.15
2022-08-17T15:35:29.324Z,29.55
2022-08-17T15:38:12.393Z,29.01
2022-08-17T15:40:49.569Z,28.73
2022-08-17T15:43:32.404Z,29.18
2022-08-17T15:46:06.575Z,29.05
2022-08-17T15:48:44.653Z,29.34
2022-08-17T15:51:16.936Z,28.97
2022-08-17T15:53:49.310Z,28.88
2022-08-17T15:56:16.837Z,28.71
2022-08-17T15:58:45.279Z,28.64
2022-08-17T16:01:14.852Z,28.71
2022-08-17T16:04:07.176Z,29.22
2022-08-17T16:06:50.395Z,29.11
2022-08-17T16:09:19.381Z,29.16
2022-08-17T16:12:02.433Z,28.34
2022-08-17T16:14:34.142Z,28.32
2022-08-17T16:17:03.030Z,29.24
2022-08-17T16:19:29.787Z,29.44
2022-08-17T16:21:59.554Z,28.91
2022-08-17T16:24:26.321Z,29.27
2022-08-17T16:26:53.635Z,28.88
2022-08-17T16:29:22.471Z,28.67
2022-08-17T16:31:49.672Z,28.99
2022-08-17T16:34:19.578Z,29.17
2022-08-17T16:36:53.679Z,28.96
2022-08-17T16:39:30.017Z,29.37
2022-08-17T16:41:57.275Z,29.17
2022-08-17T16:44:26.087Z,29.35
2022-08-17T16:46:56.629Z,28.77
2022-08-17T16:49:35.706Z,29.02
2022-08-17T16:52:12.889Z,28.99
2022-08-17T16:54:43.954Z,29.49
2022-08-17T16:57:12.130Z,29.46
2022-08-17T16:59:42.640Z,29.35
2022-08-17T17:02:16.131Z,29.72
2022-08-17T17:05:03.100Z,29.78
2022-08-17T17:07:52.475Z,29.63
2022-08-17T17:10:44.335Z,30.34
2022-08-17T17:13:26.174Z,29.70
2022-08-17T17:16:15.089Z,29.92
2022-08-17T17:18:53.410Z,30.12
2022-08-17T17:29:28.572Z,31.39
2022-08-17T17:32:40.934Z,31.15
2022-08-17T17:35:19.836Z,31.44
2022-08-17T17:37:56.345Z,31.81
2022-08-17T17:40:40.450Z,31.72
2022-08-17T17:43:39.782Z,31.46
2022-08-17T17:46:43.211Z,31.77
2022-08-17T17:49:20.379Z,31.97
2022-08-17T17:52:20.411Z,32.05
2022-08-17T18:05:52.143Z,32.82
2022-08-17T18:08:54.475Z,32.91
2022-08-17T18:11:45.605Z,32.99
2022-08-17T18:14:59.266Z,33.48
2022-08-17T18:17:39.677Z,33.42
2022-08-17T18:20:43.397Z,33.89
2022-08-17T18:23:40.644Z,33.84
2022-08-17T18:26:10.114Z,33.97
2022-08-17T18:28:51.332Z,34.13
2022-08-17T18:31:25.067Z,34.29
2022-08-17T18:37:37.616Z,34.80
2022-08-17T18:40:40.102Z,34.93
2022-08-17T18:43:43.951Z,35.38
2022-08-17T18:49:29.766Z,35.39
2022-08-17T18:52:35.906Z,35.40
2022-08-17T18:55:35.755Z,35.63
2022-08-17T18:58:43.238Z,36.02
2022-08-17T19:01:46.998Z,37.74
2022-08-17T19:04:49.724Z,36.93
2022-08-17T19:14:12.302Z,37.74
2022-08-17T19:20:01.462Z,37.43
2022-08-17T19:23:17.384Z,38.29
2022-08-17T19:26:23.338Z,40.09
2022-08-17T19:29:09.754Z,38.94
2022-08-17T19:31:50.607Z,38.08
2022-08-17T19:41:55.033Z,38.65
2022-08-17T19:44:47.511Z,38.88
2022-08-17T20:00:00.613Z,40.40
2022-08-17T20:02:59.246Z,40.03
2022-08-17T20:06:08.689Z,40.36
2022-08-17T20:08:42.493Z,42.32
2022-08-17T20:11:42.640Z,41.25
2022-08-17T20:14:53.450Z,43.26
2022-08-17T20:17:39.150Z,42.75
2022-08-17T20:20:33.906Z,44.90
2022-08-17T20:23:37.304Z,42.32
2022-08-17T20:26:22.670Z,43.23
2022-08-17T20:29:12.677Z,43.22
2022-08-17T20:31:45.774Z,43.11
2022-08-17T20:34:40.412Z,43.28
2022-08-17T20:37:10.988Z,43.38
2022-08-17T20:40:09.062Z,44.04
2022-08-17T20:42:36.638Z,44.10
2022-08-17T20:45:26.507Z,45.72
2022-08-17T20:48:35.697Z,44.34
2022-08-17T20:50:56.609Z,45.30
2022-08-17T20:54:06.804Z,46.61
2022-08-17T20:56:49.356Z,47.41
2022-08-17T20:59:32.415Z,47.98
2022-08-17T21:02:18.331Z,48.43
2022-08-17T21:05:26.399Z,48.77
2022-08-17T21:08:01.075Z,46.15
2022-08-17T21:10:35.766Z,47.58
2022-08-17T21:13:10.762Z,46.44
2022-08-17T21:15:56.022Z,46.11
2022-08-17T21:18:44.613Z,46.76
2022-08-17T21:21:29.332Z,46.97
2022-08-17T21:24:25.535Z,47.56
2022-08-17T21:27:05.447Z,46.55
2022-08-17T21:29:33.924Z,48.11
2022-08-17T21:32:06.385Z,47.86
2022-08-17T21:34:42.448Z,48.52
2022-08-17T21:37:29.654Z,47.01
2022-08-17T21:40:19.469Z,48.66
2022-08-17T21:42:48.771Z,48.03
2022-08-17T21:45:27.213Z,49.78
2022-08-17T21:48:24.640Z,48.18
2022-08-17T21:51:12.266Z,48.73
2022-08-17T21:53:48.417Z,49.51
2022-08-17T21:56:29.235Z,50.52
2022-08-17T21:59:29.620Z,51.13
2022-08-17T22:02:18.084Z,51.87
2022-08-17T22:05:16.596Z,49.66
2022-08-17T22:07:46.551Z,52.50
2022-08-17T22:10:40.731Z,51.47
2022-08-17T22:13:19.759Z,50.03
2022-08-17T22:16:27.705Z,52.56
2022-08-17T22:18:57.721Z,51.39
2022-08-17T22:21:25.075Z,52.40
2022-08-17T22:24:14.222Z,51.81
2022-08-17T22:27:03.558Z,50.72
2022-08-17T22:29:53.269Z,49.97
2022-08-17T22:32:38.004Z,50.60
2022-08-17T22:35:32.702Z,49.17
2022-08-17T22:38:18.144Z,49.60
2022-08-17T22:40:51.146Z,49.44
2022-08-17T22:43:26.035Z,50.51
2022-08-17T22:45:57.282Z,51.41
2022-08-17T22:48:29.201Z,52.52
2022-08-17T22:51:16.954Z,50.18
2022-08-17T22:54:08.134Z,50.44
2022-08-17T22:56:56.317Z,50.52
2022-08-17T22:59:51.477Z,50.41
2022-08-17T23:02:33.170Z,50.41
2022-08-17T23:05:16.571Z,50.17
2022-08-17T23:07:45.383Z,49.95
2022-08-17T23:10:14.323Z,50.52
2022-08-17T23:12:41.009Z,50.15
2022-08-17T23:15:15.944Z,49.99
2022-08-17T23:17:43.126Z,51.48
2022-08-17T23:20:14.941Z,51.53
2022-08-17T23:22:52.438Z,51.21
2022-08-17T23:25:27.798Z,50.89
2022-08-17T23:27:55.584Z,50.51
2022-08-17T23:30:25.336Z,50.57
2022-08-17T23:32:56.481Z,50.87
2022-08-17T23:35:39.335Z,51.18
2022-08-17T23:38:11.708Z,51.08
2022-08-17T23:40:39.731Z,53.43
2022-08-17T23:43:23.457Z,52.16
2022-08-17T23:45:52.372Z,52.41
2022-08-17T23:48:32.424Z,51.73
2022-08-17T23:51:09.105Z,51.88
2022-08-17T23:53:37.654Z,53.86
2022-08-17T23:56:09.339Z,53.74
2022-08-17T23:58:42.351Z,54.91
